createdAt,value
2022-11-24T00:00:45.426Z,99661.69
2022-11-24T00:02:47.524Z,99683.09
2022-11-24T00:04:49.642Z,99665.09
2022-11-24T00:06:53.573Z,99663.38
2022-11-24T00:08:56.569Z,99677.09
2022-11-24T00:11:04.493Z,99672.84
2022-11-24T00:13:06.468Z,99674.53
2022-11-24T00:15:08.670Z,99682.22
2022-11-24T00:17:10.750Z,99687.38
2022-11-24T00:19:17.060Z,99678.78
2022-11-24T00:21:22.149Z,99678.75
2022-11-24T00:23:24.132Z,99682.19
2022-11-24T00:25:26.046Z,99692.50
2022-11-24T00:27:28.028Z,99716.47
2022-11-24T00:29:30.074Z,99704.44
2022-11-24T00:31:35.415Z,99711.34
2022-11-24T00:33:37.381Z,99724.22
2022-11-24T00:35:39.394Z,99738.81
2022-11-24T00:37:41.336Z,99771.34
2022-11-24T00:39:43.225Z,99764.53
2022-11-24T00:41:45.229Z,99775.63
2022-11-24T00:43:47.354Z,99764.47
2022-11-24T00:45:49.491Z,99761.91
2022-11-24T00:47:51.619Z,99770.34
2022-11-24T00:49:53.529Z,99766.91
2022-11-24T00:51:55.452Z,99772.97
2022-11-24T00:53:58.765Z,99786.66
2022-11-24T00:56:00.954Z,99782.38
2022-11-24T00:58:03.006Z,99778.06
2022-11-24T01:00:05.993Z,99799.41
2022-11-24T01:02:08.026Z,99796.75
2022-11-24T01:04:10.009Z,99813.97
2022-11-24T01:06:15.108Z,99817.09
2022-11-24T01:08:17.324Z,99830.75
2022-11-24T01:10:19.345Z,99828.13
2022-11-24T01:12:21.291Z,99834.19
2022-11-24T01:14:25.246Z,99847.69
2022-11-24T01:16:32.882Z,99840.00
2022-11-24T01:18:34.847Z,99845.19
2022-11-24T01:20:37.770Z,99859.69
2022-11-24T01:22:39.741Z,99854.44
2022-11-24T01:24:42.009Z,99851.13
2022-11-24T01:26:44.019Z,99860.44
2022-11-24T01:28:47.480Z,99855.38
2022-11-24T01:30:56.118Z,99862.19
2022-11-24T01:32:58.089Z,99873.28
2022-11-24T01:35:00.326Z,99874.22
2022-11-24T01:37:02.301Z,99876.72
2022-11-24T01:39:04.409Z,99889.53
2022-11-24T01:41:13.409Z,99893.00
2022-11-24T01:43:18.794Z,99883.56
2022-11-24T01:45:32.766Z,99889.59
2022-11-24T01:47:38.720Z,99893.94
2022-11-24T01:49:46.987Z,99893.00
2022-11-24T01:51:55.748Z,99901.56
2022-11-24T01:54:02.270Z,99913.53
2022-11-24T01:56:05.650Z,99911.03
2022-11-24T01:58:15.405Z,99917.06
2022-11-24T02:00:18.956Z,99926.47
2022-11-24T02:02:22.380Z,99940.09
2022-11-24T02:04:29.867Z,99937.50
2022-11-24T02:06:35.548Z,99943.53
2022-11-24T02:08:45.294Z,99934.06
2022-11-24T02:10:48.646Z,99948.63
2022-11-24T02:12:53.833Z,99943.50
2022-11-24T02:14:56.642Z,99940.78
2022-11-24T02:16:58.546Z,99949.34
2022-11-24T02:19:00.508Z,99953.47
2022-11-24T02:21:02.433Z,99950.91
2022-11-24T02:23:12.535Z,99956.09
2022-11-24T02:25:20.793Z,99961.34
2022-11-24T02:27:22.785Z,99963.81
2022-11-24T02:29:24.824Z,99963.84
2022-11-24T02:31:27.014Z,99974.13
2022-11-24T02:33:30.024Z,99979.91
2022-11-24T02:35:32.276Z,99986.84
2022-11-24T02:37:34.417Z,99983.44
2022-11-24T02:39:36.414Z,99997.16
2022-11-24T02:41:40.265Z,99995.56
2022-11-24T02:43:48.767Z,100010.00
2022-11-24T02:45:50.712Z,100019.50
2022-11-24T02:47:52.864Z,100028.94
2022-11-24T02:49:54.817Z,100027.94
2022-11-24T02:51:57.217Z,100022.88
2022-11-24T02:53:59.341Z,100022.94
2022-11-24T02:56:01.272Z,100027.22
2022-11-24T02:58:03.494Z,100035.75
2022-11-24T03:00:06.359Z,100028.94
2022-11-24T03:02:08.316Z,100046.84
2022-11-24T03:04:10.330Z,100042.66
2022-11-24T03:06:12.418Z,100041.66
2022-11-24T03:08:14.478Z,100041.56
2022-11-24T03:10:17.162Z,100052.66
2022-11-24T03:12:19.103Z,100049.38
2022-11-24T03:14:20.972Z,100048.53
2022-11-24T03:16:22.927Z,100042.56
2022-11-24T03:18:24.962Z,100050.25
2022-11-24T03:20:27.043Z,100052.78
2022-11-24T03:22:29.237Z,100051.03
2022-11-24T03:24:31.800Z,100059.66
2022-11-24T03:26:35.361Z,100063.06
2022-11-24T03:28:37.312Z,100066.44
2022-11-24T03:30:39.188Z,100071.47
2022-11-24T03:32:42.110Z,100065.44
2022-11-24T03:34:44.091Z,100075.63
2022-11-24T03:36:46.264Z,100086.72
2022-11-24T03:38:48.232Z,100084.94
2022-11-24T03:40:50.190Z,100093.56
2022-11-24T03:42:52.162Z,100097.94
2022-11-24T03:44:54.221Z,100092.63
2022-11-24T03:46:56.100Z,100093.66
2022-11-24T03:48:58.009Z,100097.84
2022-11-24T03:51:02.005Z,100102.97
2022-11-24T03:53:04.074Z,100102.22
2022-11-24T03:55:06.816Z,100101.38
2022-11-24T03:57:08.911Z,100109.06
2022-11-24T03:59:10.789Z,100113.25
2022-11-24T04:01:12.743Z,100107.41
2022-11-24T04:03:14.791Z,100108.28
2022-11-24T04:05:16.915Z,100110.84
2022-11-24T04:07:19.016Z,100106.59
2022-11-24T04:09:20.986Z,100115.06
2022-11-24T04:11:26.025Z,100112.53
2022-11-24T04:13:27.964Z,100122.66
2022-11-24T04:15:29.916Z,100131.31
2022-11-24T04:17:31.946Z,100130.44
2022-11-24T04:19:33.813Z,100142.28
2022-11-24T04:21:35.961Z,100142.19
2022-11-24T04:23:37.950Z,100148.97
2022-11-24T04:25:41.617Z,100143.97
2022-11-24T04:27:44.033Z,100146.63
2022-11-24T04:29:46.077Z,100160.28
2022-11-24T04:31:48.013Z,100153.47
2022-11-24T04:33:49.917Z,100144.91
2022-11-24T04:35:53.825Z,100149.22
2022-11-24T04:37:55.749Z,100156.22
2022-11-24T04:39:57.630Z,100155.34
2022-11-24T04:41:59.612Z,100152.72
2022-11-24T04:44:01.542Z,100163.94
2022-11-24T04:46:03.429Z,100157.88
2022-11-24T04:48:06.021Z,100157.03
2022-11-24T04:50:09.156Z,100167.25
2022-11-24T04:52:11.080Z,100160.44
2022-11-24T04:54:14.430Z,100160.41
2022-11-24T04:56:16.396Z,100163.06
2022-11-24T04:58:18.369Z,100172.50
2022-11-24T05:00:20.530Z,100179.31
2022-11-24T05:02:22.965Z,100174.00
2022-11-24T05:04:24.914Z,100182.38
2022-11-24T05:06:27.120Z,100185.19
2022-11-24T05:08:29.101Z,100186.94
2022-11-24T05:10:34.205Z,100202.25
2022-11-24T05:12:36.188Z,100197.09
2022-11-24T05:14:38.169Z,100200.63
2022-11-24T05:16:40.864Z,100185.97
2022-11-24T05:18:42.982Z,100191.06
2022-11-24T05:20:45.039Z,100196.22
2022-11-24T05:22:47.222Z,100189.47
2022-11-24T05:24:49.297Z,100194.59
2022-11-24T05:26:51.241Z,100197.97
2022-11-24T05:28:53.425Z,100197.94
2022-11-24T05:30:59.056Z,100200.47
2022-11-24T05:33:06.149Z,100204.69
2022-11-24T05:35:09.909Z,100202.97
2022-11-24T05:37:11.936Z,100208.25
2022-11-24T05:39:13.885Z,100213.34
2022-11-24T05:41:16.067Z,100225.34
2022-11-24T05:43:18.660Z,100221.00
2022-11-24T05:45:22.046Z,100226.84
2022-11-24T05:47:24.322Z,100224.41
2022-11-24T05:49:26.444Z,100236.41
2022-11-24T05:51:28.305Z,100239.00
2022-11-24T05:53:30.185Z,100250.97
2022-11-24T05:55:32.961Z,100252.66
2022-11-24T05:57:35.521Z,100256.91
2022-11-24T05:59:37.509Z,100257.75
2022-11-24T06:01:39.501Z,100252.69
2022-11-24T06:03:41.547Z,100259.53
2022-11-24T06:05:47.433Z,100252.69
2022-11-24T06:07:49.367Z,100253.66
2022-11-24T06:09:51.300Z,100260.44
2022-11-24T06:11:53.284Z,100260.53
2022-11-24T06:13:55.179Z,100269.94
2022-11-24T06:15:59.585Z,100274.25
2022-11-24T06:18:01.565Z,100269.94
2022-11-24T06:20:03.790Z,100270.81
2022-11-24T06:22:05.796Z,100271.69
2022-11-24T06:24:08.389Z,100271.75
2022-11-24T06:26:10.751Z,100282.94
2022-11-24T06:28:12.759Z,100281.28
2022-11-24T06:30:15.403Z,100276.97
2022-11-24T06:32:17.633Z,100280.56
2022-11-24T06:34:19.558Z,100273.63
2022-11-24T06:36:21.456Z,100266.00
2022-11-24T06:38:24.453Z,100274.59
2022-11-24T06:40:26.496Z,100271.22
2022-11-24T06:42:28.400Z,100270.41
2022-11-24T06:44:30.496Z,100257.59
2022-11-24T06:46:32.489Z,100264.38
2022-11-24T06:48:34.676Z,100254.13
2022-11-24T06:50:37.668Z,100260.16
2022-11-24T06:52:39.936Z,100256.72
2022-11-24T06:54:41.949Z,100263.47
2022-11-24T06:56:44.316Z,100265.19
2022-11-24T06:58:49.650Z,100265.94
2022-11-24T07:00:52.235Z,100272.94
2022-11-24T07:02:54.340Z,100273.81
2022-11-24T07:04:56.302Z,100267.81
2022-11-24T07:06:58.238Z,100270.34
2022-11-24T07:09:00.213Z,100266.09
2022-11-24T07:11:06.310Z,100279.84
2022-11-24T07:13:08.884Z,100278.91
2022-11-24T07:15:11.474Z,100288.31
2022-11-24T07:17:13.401Z,100287.47
2022-11-24T07:19:18.944Z,100297.59
2022-11-24T07:21:24.948Z,100301.03
2022-11-24T07:23:26.898Z,100308.00
2022-11-24T07:25:28.820Z,100301.19
2022-11-24T07:27:30.768Z,100304.72
2022-11-24T07:29:32.787Z,100308.94
2022-11-24T07:31:34.932Z,100305.59
2022-11-24T07:33:37.236Z,100311.53
2022-11-24T07:35:39.236Z,100315.97
2022-11-24T07:37:41.291Z,100315.09
2022-11-24T07:39:43.385Z,100327.03
2022-11-24T07:41:45.389Z,100321.94
2022-11-24T07:43:48.338Z,100322.03
2022-11-24T07:45:53.477Z,100316.06
2022-11-24T07:47:55.585Z,100316.97
2022-11-24T07:49:57.506Z,100322.97
2022-11-24T07:52:00.977Z,100323.75
2022-11-24T07:54:03.125Z,100320.44
2022-11-24T07:56:07.980Z,100324.78
2022-11-24T07:58:09.977Z,100322.25
2022-11-24T08:00:13.081Z,100323.97
2022-11-24T08:02:15.563Z,100324.00
2022-11-24T08:04:17.541Z,100331.78
2022-11-24T08:06:26.242Z,100333.38
2022-11-24T08:08:33.525Z,100334.03
2022-11-24T08:10:35.625Z,100329.88
2022-11-24T08:12:37.900Z,100310.84
2022-11-24T08:14:40.005Z,100320.50
2022-11-24T08:16:42.339Z,100319.41
2022-11-24T08:18:49.147Z,100317.59
2022-11-24T08:20:51.161Z,100321.22
2022-11-24T08:22:58.630Z,100312.50
2022-11-24T08:25:00.860Z,100315.03
2022-11-24T08:27:03.306Z,100319.22
2022-11-24T08:29:05.601Z,100314.91
2022-11-24T08:31:10.401Z,100316.00
2022-11-24T08:33:13.005Z,100318.53
2022-11-24T08:35:15.184Z,100321.00
2022-11-24T08:37:18.353Z,100327.72
2022-11-24T08:39:20.989Z,100323.50
2022-11-24T08:41:24.313Z,100319.16
2022-11-24T08:43:26.486Z,100311.59
2022-11-24T08:45:30.796Z,100308.69
2022-11-24T08:47:33.023Z,100314.06
2022-11-24T08:49:35.216Z,100315.94
2022-11-24T08:51:37.957Z,100323.69
2022-11-24T08:53:40.526Z,100319.53
2022-11-24T08:55:42.487Z,100319.56
2022-11-24T08:57:44.652Z,100318.84
2022-11-24T08:59:47.058Z,100326.53
2022-11-24T09:01:49.544Z,100324.72
2022-11-24T09:03:52.609Z,100322.22
2022-11-24T09:05:54.921Z,100325.84
2022-11-24T09:07:58.170Z,100327.63
2022-11-24T09:10:00.524Z,100327.75
2022-11-24T09:12:02.802Z,100318.34
2022-11-24T09:14:05.176Z,100319.34
2022-11-24T09:16:11.403Z,100325.91
2022-11-24T09:18:13.528Z,100308.91
2022-11-24T09:20:16.123Z,100310.69
2022-11-24T09:22:19.440Z,100320.97
2022-11-24T09:24:21.619Z,100310.06
2022-11-24T09:26:26.907Z,100318.66
2022-11-24T09:28:29.164Z,100305.59
2022-11-24T09:30:31.367Z,100306.56
2022-11-24T09:32:33.502Z,100312.75
2022-11-24T09:34:36.526Z,100313.38
2022-11-24T09:36:38.937Z,100310.16
2022-11-24T09:38:41.897Z,100318.69
2022-11-24T09:40:43.977Z,100308.69
2022-11-24T09:42:53.538Z,100309.44
2022-11-24T09:45:04.953Z,100301.88
2022-11-24T09:47:13.284Z,100301.16
2022-11-24T09:49:22.925Z,100299.31
2022-11-24T09:51:30.881Z,100311.44
2022-11-24T09:53:36.713Z,100301.22
2022-11-24T09:55:43.286Z,100299.59
2022-11-24T09:57:49.424Z,100302.19
2022-11-24T09:59:51.470Z,100295.31
2022-11-24T10:01:56.055Z,100295.34
2022-11-24T10:04:04.268Z,100296.13
2022-11-24T10:06:15.587Z,100294.50
2022-11-24T10:08:24.165Z,100298.94
2022-11-24T10:10:38.362Z,100293.88
2022-11-24T10:12:45.009Z,100301.75
2022-11-24T10:14:53.764Z,100287.19
2022-11-24T10:17:11.210Z,100286.44
2022-11-24T10:19:17.869Z,100299.31
2022-11-24T10:21:29.822Z,100294.97
2022-11-24T10:23:39.892Z,100292.56
2022-11-24T10:25:48.837Z,100282.28
2022-11-24T10:28:00.465Z,100289.09
2022-11-24T10:30:03.256Z,100286.63
2022-11-24T10:32:14.474Z,100287.53
2022-11-24T10:34:18.916Z,100285.88
2022-11-24T10:36:30.869Z,100283.34
2022-11-24T10:38:37.526Z,100285.06
2022-11-24T10:41:00.480Z,100279.13
2022-11-24T10:43:03.125Z,100273.97
2022-11-24T10:45:11.483Z,100274.88
2022-11-24T10:47:19.789Z,100266.44
2022-11-24T10:49:28.985Z,100266.47
2022-11-24T10:51:32.122Z,100257.06
2022-11-24T10:53:38.563Z,100251.88
2022-11-24T10:55:47.028Z,100258.81
2022-11-24T10:57:49.179Z,100246.84
2022-11-24T10:59:51.450Z,100236.56
2022-11-24T11:01:53.843Z,100235.75
2022-11-24T11:03:58.729Z,100228.94
2022-11-24T11:06:10.705Z,100231.56
2022-11-24T11:08:15.232Z,100224.75
2022-11-24T11:10:22.946Z,100223.81
2022-11-24T11:12:45.983Z,100221.22
2022-11-24T11:14:48.921Z,100211.78
2022-11-24T11:16:54.412Z,100194.56
2022-11-24T11:18:57.195Z,100191.19
2022-11-24T11:21:03.132Z,100185.22
2022-11-24T11:23:20.366Z,100192.09
2022-11-24T11:25:30.005Z,100190.44
2022-11-24T11:27:32.494Z,100192.97
2022-11-24T11:34:30.051Z,100198.25
2022-11-24T11:36:33.470Z,100172.44
2022-11-24T11:38:38.692Z,100164.72
2022-11-24T11:40:44.048Z,100155.22
2022-11-24T11:43:02.326Z,100142.34
2022-11-24T11:45:12.420Z,100135.50
2022-11-24T11:47:24.953Z,100139.84
2022-11-24T11:49:30.306Z,100139.81
2022-11-24T11:51:54.806Z,100140.69
2022-11-24T11:54:08.054Z,100122.66
2022-11-24T11:56:24.567Z,100126.13
2022-11-24T11:58:39.285Z,100120.09
2022-11-24T12:00:50.021Z,100110.63
2022-11-24T12:02:53.949Z,100129.59
2022-11-24T12:05:02.563Z,100122.72
2022-11-24T12:07:05.405Z,100132.22
2022-11-24T12:09:20.787Z,100122.72
2022-11-24T12:11:33.825Z,100114.97
2022-11-24T12:13:36.634Z,100114.13
2022-11-24T12:15:42.353Z,100110.69
2022-11-24T12:17:52.044Z,100120.97
2022-11-24T12:19:58.645Z,100093.41
2022-11-24T12:22:07.048Z,100101.16
2022-11-24T12:24:15.751Z,100114.94
2022-11-24T12:26:25.886Z,100093.41
2022-11-24T12:28:36.301Z,100086.47
2022-11-24T12:30:44.698Z,100098.59
2022-11-24T12:32:51.449Z,100089.09
2022-11-24T12:35:03.469Z,100084.78
2022-11-24T12:37:12.189Z,100083.06
2022-11-24T12:39:23.368Z,100077.00
2022-11-24T12:41:42.201Z,100089.09
2022-11-24T12:43:53.008Z,100079.63
2022-11-24T12:46:10.027Z,100077.06
2022-11-24T12:48:26.629Z,100088.22
2022-11-24T12:50:30.681Z,100057.25
2022-11-24T12:52:38.561Z,100057.25
2022-11-24T12:54:41.349Z,100052.94
2022-11-24T12:56:54.106Z,100056.41
2022-11-24T12:59:00.825Z,100062.41
2022-11-24T13:01:14.665Z,100053.78
2022-11-24T13:03:24.785Z,100044.31
2022-11-24T13:05:37.143Z,100054.66
2022-11-24T13:07:47.225Z,100053.81
2022-11-24T13:09:55.678Z,100031.41
2022-11-24T13:12:08.037Z,100034.00
2022-11-24T13:14:14.803Z,100025.38
2022-11-24T13:16:38.661Z,100011.63
2022-11-24T13:18:44.368Z,100022.84
2022-11-24T13:20:46.855Z,100023.66
2022-11-24T13:22:53.243Z,100014.19
2022-11-24T13:25:01.863Z,100016.78
2022-11-24T13:27:10.521Z,100012.50
2022-11-24T13:29:25.173Z,99999.56
2022-11-24T13:31:27.889Z,99990.09
2022-11-24T13:33:32.773Z,99996.13
2022-11-24T13:35:35.285Z,99996.13
2022-11-24T13:37:38.161Z,100010.78
2022-11-24T13:39:52.391Z,99988.38
2022-11-24T13:41:55.241Z,99976.31
2022-11-24T13:44:03.570Z,99980.66
2022-11-24T13:46:10.051Z,99979.75
2022-11-24T13:48:18.540Z,99987.50
2022-11-24T13:50:21.775Z,99984.06
2022-11-24T13:52:30.181Z,99984.03
2022-11-24T13:54:32.756Z,99979.75
2022-11-24T13:56:35.142Z,99979.78
2022-11-24T13:58:40.006Z,99974.63
2022-11-24T14:00:48.430Z,99967.72
2022-11-24T14:02:53.124Z,99959.94
2022-11-24T14:04:57.437Z,99959.97
2022-11-24T14:07:07.981Z,99960.81
2022-11-24T14:09:20.053Z,99955.66
2022-11-24T14:11:23.488Z,99974.59
2022-11-24T14:13:30.214Z,99963.41
2022-11-24T14:15:35.858Z,99953.97
2022-11-24T14:17:38.929Z,99955.69
2022-11-24T14:19:44.215Z,99934.19
2022-11-24T14:21:46.878Z,99941.91
2022-11-24T14:23:53.328Z,99935.03
2022-11-24T14:25:55.964Z,99928.13
2022-11-24T14:28:00.161Z,99938.47
2022-11-24T14:30:04.946Z,99929.00
2022-11-24T14:32:17.409Z,99931.63
2022-11-24T14:34:22.052Z,99921.28
2022-11-24T14:36:25.889Z,99928.16
2022-11-24T14:38:28.477Z,99901.47
2022-11-24T14:40:44.841Z,99893.75
2022-11-24T14:42:51.563Z,99873.06
2022-11-24T14:44:56.987Z,99874.78
2022-11-24T14:47:04.297Z,99872.19
2022-11-24T14:49:07.897Z,99859.31
2022-11-24T14:51:11.820Z,99865.34
2022-11-24T14:53:18.281Z,99837.78
2022-11-24T14:55:25.620Z,99837.78
2022-11-24T14:57:32.442Z,99843.00
2022-11-24T14:59:36.938Z,99861.03
2022-11-24T15:01:42.029Z,99855.88
2022-11-24T15:03:44.900Z,99852.44
2022-11-24T15:05:53.088Z,99867.94
2022-11-24T15:08:02.037Z,99852.47
2022-11-24T15:10:17.805Z,99864.47
2022-11-24T15:12:29.272Z,99844.69
2022-11-24T15:14:35.758Z,99853.28
2022-11-24T15:16:40.820Z,99852.44
2022-11-24T15:18:46.853Z,99859.31
2022-11-24T15:20:49.968Z,99863.63
2022-11-24T15:23:12.453Z,99849.88
2022-11-24T15:25:21.419Z,99859.34
2022-11-24T15:27:23.960Z,99863.63
2022-11-24T15:29:26.619Z,99855.88
2022-11-24T15:31:29.460Z,99859.34
2022-11-24T15:33:32.858Z,99873.94
2022-11-24T15:35:35.691Z,99864.50
2022-11-24T15:37:38.166Z,99861.06
2022-11-24T15:39:41.085Z,99855.06
2022-11-24T15:41:43.659Z,99922.13
2022-11-24T15:43:46.342Z,99871.38
2022-11-24T15:45:48.904Z,99877.41
2022-11-24T15:47:51.997Z,99869.66
2022-11-24T15:49:54.218Z,99879.13
2022-11-24T15:51:56.604Z,99872.25
2022-11-24T15:54:01.290Z,99868.81
2022-11-24T15:56:09.752Z,99874.81
2022-11-24T15:58:14.700Z,99862.78
2022-11-24T16:00:19.584Z,99869.66
2022-11-24T16:02:22.960Z,99868.81
2022-11-24T16:04:26.521Z,99857.59
2022-11-24T16:06:29.642Z,99879.13
2022-11-24T16:08:32.281Z,99860.19
2022-11-24T16:10:37.660Z,99887.75
2022-11-24T16:12:40.768Z,99876.53
2022-11-24T16:14:43.900Z,99880.00
2022-11-24T16:16:46.917Z,99885.16
2022-11-24T16:18:50.062Z,99879.97
2022-11-24T16:20:52.941Z,99887.75
2022-11-24T16:22:57.750Z,99892.91
2022-11-24T16:25:01.158Z,99886.03
2022-11-24T16:27:04.236Z,99894.59
2022-11-24T16:29:07.827Z,99909.25
2022-11-24T16:31:10.793Z,99905.78
2022-11-24T16:33:15.094Z,99900.63
2022-11-24T16:35:18.621Z,99900.66
2022-11-24T16:37:22.786Z,99904.94
2022-11-24T16:39:26.405Z,99905.81
2022-11-24T16:41:29.852Z,99940.22
2022-11-24T16:43:33.356Z,99916.97
2022-11-24T16:45:40.834Z,99931.59
2022-11-24T16:47:47.286Z,99933.31
2022-11-24T16:49:50.287Z,99942.78
2022-11-24T16:51:52.874Z,99929.91
2022-11-24T16:53:59.930Z,99942.81
2022-11-24T16:56:04.589Z,99951.41
2022-11-24T16:58:07.387Z,99937.63
2022-11-24T17:00:12.053Z,99942.78
2022-11-24T17:02:24.465Z,99918.69
2022-11-24T17:04:27.861Z,99920.41
2022-11-24T17:06:33.135Z,99907.47
2022-11-24T17:08:37.857Z,99920.41
2022-11-24T17:10:41.155Z,99928.13
2022-11-24T17:12:45.710Z,99917.78
2022-11-24T17:15:16.355Z,99928.91
2022-11-24T17:17:14.736Z,99916.88
2022-11-24T17:19:18.041Z,99924.63
2022-11-24T17:21:25.870Z,99936.66
2022-11-24T17:23:30.135Z,99940.09
2022-11-24T17:25:35.239Z,99938.41
2022-11-24T17:27:39.238Z,99946.97
2022-11-24T17:29:42.811Z,99938.41
2022-11-24T17:31:47.490Z,99935.84
2022-11-24T17:33:51.734Z,99933.22
2022-11-24T17:35:55.350Z,99932.38
2022-11-24T17:37:58.950Z,99949.53
2022-11-24T17:40:26.942Z,99946.09
2022-11-24T17:42:25.365Z,99950.41
2022-11-24T17:44:29.029Z,99952.13
2022-11-24T17:46:35.192Z,99943.53
2022-11-24T17:48:38.678Z,99940.94
2022-11-24T17:50:42.005Z,99940.94
2022-11-24T17:52:50.074Z,99950.41
2022-11-24T17:54:54.274Z,99955.56
2022-11-24T17:56:57.849Z,99957.31
2022-11-24T17:59:04.954Z,99955.56
2022-11-24T18:01:10.171Z,99950.41
2022-11-24T18:03:13.933Z,99965.00
2022-11-24T18:05:18.080Z,99970.13
2022-11-24T18:07:21.145Z,99971.03
2022-11-24T18:09:24.890Z,99970.97
2022-11-24T18:11:32.059Z,99971.81
2022-11-24T18:14:01.431Z,99975.25
2022-11-24T18:16:01.423Z,99983.81
2022-11-24T18:18:06.000Z,99968.38
2022-11-24T18:20:09.673Z,99978.66
2022-11-24T18:22:12.318Z,99974.38
2022-11-24T18:24:18.569Z,99998.38
2022-11-24T18:26:29.929Z,99991.56
2022-11-24T18:28:33.676Z,99986.41
2022-11-24T18:30:38.760Z,100000.09
2022-11-24T18:32:41.260Z,100005.31
2022-11-24T18:34:44.915Z,100013.84
2022-11-24T18:36:51.501Z,100015.56
2022-11-24T18:38:55.034Z,100014.72
2022-11-24T18:41:00.299Z,100029.31
2022-11-24T18:43:02.915Z,100029.31
2022-11-24T18:45:06.685Z,100036.13
2022-11-24T18:47:09.506Z,100048.19
2022-11-24T18:49:11.975Z,100045.63
2022-11-24T18:51:15.423Z,100046.44
2022-11-24T18:53:18.239Z,100049.84
2022-11-24T18:55:21.583Z,100052.47
2022-11-24T18:57:24.150Z,100043.84
2022-11-24T18:59:26.646Z,100044.69
2022-11-24T19:01:30.214Z,100055.84
2022-11-24T19:03:33.011Z,100048.94
2022-11-24T19:05:35.664Z,100055.00
2022-11-24T19:07:38.306Z,100049.84
2022-11-24T19:09:40.710Z,100058.44
2022-11-24T19:11:45.534Z,100065.25
2022-11-24T19:13:49.653Z,100075.53
2022-11-24T19:15:52.585Z,100058.44
2022-11-24T19:17:55.189Z,100071.19
2022-11-24T19:19:57.669Z,100053.09
2022-11-24T19:22:01.180Z,100047.94
2022-11-24T19:24:05.889Z,100051.41
2022-11-24T19:26:08.457Z,100059.09
2022-11-24T19:28:13.264Z,100053.16
2022-11-24T19:30:17.954Z,100055.72
2022-11-24T19:32:20.529Z,100058.31
2022-11-24T19:34:22.760Z,100056.59
2022-11-24T19:36:26.431Z,100062.56
2022-11-24T19:38:30.388Z,100069.47
2022-11-24T19:40:32.801Z,100063.47
2022-11-24T19:42:35.434Z,100070.38
2022-11-24T19:44:37.993Z,100067.81
2022-11-24T19:46:41.079Z,100070.41
2022-11-24T19:48:46.396Z,100065.19
2022-11-24T19:50:49.089Z,100072.88
2022-11-24T19:52:51.659Z,100077.19
2022-11-24T19:54:54.390Z,100068.59
2022-11-24T19:56:56.996Z,100069.38
2022-11-24T19:58:59.574Z,100068.59
2022-11-24T20:01:08.519Z,100071.19
2022-11-24T20:03:11.209Z,100080.56
2022-11-24T20:05:13.630Z,100072.91
2022-11-24T20:07:16.255Z,100071.16
2022-11-24T20:09:19.134Z,100070.31
2022-11-24T20:11:22.699Z,100078.06
2022-11-24T20:13:25.286Z,100085.84
2022-11-24T20:15:29.328Z,100090.03
2022-11-24T20:17:33.174Z,100087.47
2022-11-24T20:19:36.107Z,100095.22
2022-11-24T20:21:39.839Z,100108.09
2022-11-24T20:23:42.928Z,100100.38
2022-11-24T20:25:45.414Z,100115.81
2022-11-24T20:27:47.877Z,100110.59
2022-11-24T20:29:50.659Z,100111.47
2022-11-24T20:31:55.154Z,100117.44
2022-11-24T20:33:57.850Z,100126.91
2022-11-24T20:36:06.549Z,100133.78
2022-11-24T20:38:09.290Z,100135.56
2022-11-24T20:40:12.396Z,100133.84
2022-11-24T20:42:14.989Z,100137.09
2022-11-24T20:44:22.586Z,100133.72
2022-11-24T20:46:27.774Z,100136.34
2022-11-24T20:48:31.182Z,100136.34
2022-11-24T20:50:37.651Z,100130.31
2022-11-24T20:52:40.374Z,100132.06
2022-11-24T20:54:45.416Z,100133.75
2022-11-24T20:56:48.655Z,100128.63
2022-11-24T20:58:52.128Z,100126.03
2022-11-24T21:00:54.510Z,100123.38
2022-11-24T21:02:58.132Z,100131.09
2022-11-24T21:05:00.537Z,100122.53
2022-11-24T21:07:03.081Z,100135.38
2022-11-24T21:09:06.940Z,100134.59
2022-11-24T21:11:12.032Z,100131.97
2022-11-24T21:13:14.219Z,100134.59
2022-11-24T21:15:16.542Z,100133.75
2022-11-24T21:17:19.046Z,100135.47
2022-11-24T21:19:21.481Z,100142.28
2022-11-24T21:21:25.179Z,100134.59
2022-11-24T21:23:28.575Z,100134.53
2022-11-24T21:25:31.303Z,100138.81
2022-11-24T21:27:33.546Z,100135.47
2022-11-24T21:29:35.807Z,100135.47
2022-11-24T21:31:39.015Z,100138.78
2022-11-24T21:33:45.833Z,100129.44
2022-11-24T21:35:48.145Z,100137.09
2022-11-24T21:37:50.485Z,100134.59
2022-11-24T21:39:53.930Z,100136.25
2022-11-24T21:41:56.320Z,100140.59
2022-11-24T21:43:59.050Z,100149.19
2022-11-24T21:46:03.407Z,100144.91
2022-11-24T21:48:06.460Z,100157.78
2022-11-24T21:50:09.571Z,100143.09
2022-11-24T21:52:12.225Z,100158.56
2022-11-24T21:54:14.812Z,100167.91
2022-11-24T21:56:19.888Z,100159.28
2022-11-24T21:58:22.877Z,100150.72
2022-11-24T22:00:25.289Z,100140.41
2022-11-24T22:02:27.515Z,100135.28
2022-11-24T22:04:29.795Z,100135.28
2022-11-24T22:06:33.450Z,100135.25
2022-11-24T22:08:35.985Z,100133.56
2022-11-24T22:10:38.188Z,100128.41
2022-11-24T22:12:40.398Z,100142.16
2022-11-24T22:14:43.254Z,100145.59
2022-11-24T22:16:46.269Z,100138.78
2022-11-24T22:18:49.022Z,100142.16
2022-11-24T22:20:55.605Z,100146.44
2022-11-24T22:22:58.053Z,100127.56
2022-11-24T22:25:00.589Z,100128.41
2022-11-24T22:27:04.568Z,100115.47
2022-11-24T22:29:08.004Z,100118.03
2022-11-24T22:31:13.100Z,100121.44
2022-11-24T22:33:15.658Z,100124.06
2022-11-24T22:35:17.873Z,100126.69
2022-11-24T22:37:20.083Z,100143.75
2022-11-24T22:39:22.441Z,100142.88
2022-11-24T22:41:25.773Z,100144.69
2022-11-24T22:43:30.529Z,100148.03
2022-11-24T22:45:32.878Z,100146.34
2022-11-24T22:47:35.362Z,100146.31
2022-11-24T22:49:37.750Z,100149.78
2022-11-24T22:51:40.102Z,100150.50
2022-11-24T22:53:46.886Z,100154.75
2022-11-24T22:55:49.142Z,100166.69
2022-11-24T22:57:56.753Z,100154.53
2022-11-24T22:59:59.227Z,100162.38
2022-11-24T23:02:01.501Z,100162.38
2022-11-24T23:04:04.270Z,100163.22
2022-11-24T23:06:12.765Z,100172.66
2022-11-24T23:08:14.961Z,100173.63
2022-11-24T23:10:17.225Z,100179.41
2022-11-24T23:12:19.438Z,100181.97
2022-11-24T23:14:22.656Z,100188.84
2022-11-24T23:16:24.945Z,100181.13
2022-11-24T23:18:27.144Z,100188.84
2022-11-24T23:20:29.300Z,100195.59
2022-11-24T23:22:31.533Z,100192.22
2022-11-24T23:24:38.162Z,100193.03
2022-11-24T23:26:41.637Z,100188.78
2022-11-24T23:28:44.088Z,100191.38
2022-11-24T23:30:46.301Z,100187.09
2022-11-24T23:32:48.425Z,100195.56
2022-11-24T23:34:50.588Z,100196.50
2022-11-24T23:36:52.744Z,100209.41
2022-11-24T23:38:55.101Z,100209.34
2022-11-24T23:40:57.878Z,100210.06
2022-11-24T23:43:00.602Z,100210.16
2022-11-24T23:45:02.817Z,100214.50
2022-11-24T23:47:05.288Z,100218.69
2022-11-24T23:49:07.480Z,100217.00
2022-11-24T23:51:14.240Z,100230.84
2022-11-24T23:53:16.443Z,100226.59
2022-11-24T23:55:19.284Z,100225.72
2022-11-24T23:57:21.464Z,100236.88